sensor_id;sensor_type;location;lat;lon;timestamp;temperature;humidity
33328;DHT22;19692;52.998;9.116;2023-07-08T00:00:44;17.80;99.90
33328;DHT22;19692;52.998;9.116;2023-07-08T00:03:11;17.80;99.90
33328;DHT22;19692;52.998;9.116;2023-07-08T00:05:36;17.80;99.90
33328;DHT22;19692;52.998;9.116;2023-07-08T00:08:02;17.70;99.90
33328;DHT22;19692;52.998;9.116;2023-07-08T00:10:29;17.60;99.90
33328;DHT22;19692;52.998;9.116;2023-07-08T00:12:57;17.60;99.90
33328;DHT22;19692;52.998;9.116;2023-07-08T00:15:28;17.60;99.90
33328;DHT22;19692;52.998;9.116;2023-07-08T00:17:55;17.60;99.90
33328;DHT22;19692;52.998;9.116;2023-07-08T00:23:01;17.60;99.90
33328;DHT22;19692;52.998;9.116;2023-07-08T00:25:27;17.50;99.90
33328;DHT22;19692;52.998;9.116;2023-07-08T00:27:54;17.50;99.90
33328;DHT22;19692;52.998;9.116;2023-07-08T00:30:28;17.40;99.90
33328;DHT22;19692;52.998;9.116;2023-07-08T00:32:55;17.40;99.90
33328;DHT22;19692;52.998;9.116;2023-07-08T00:35:37;17.40;99.90
33328;DHT22;19692;52.998;9.116;2023-07-08T00:40:51;17.20;99.90
33328;DHT22;19692;52.998;9.116;2023-07-08T00:43:23;17.20;99.90
33328;DHT22;19692;52.998;9.116;2023-07-08T00:45:53;17.30;99.90
33328;DHT22;19692;52.998;9.116;2023-07-08T00:48:33;17.30;99.90
33328;DHT22;19692;52.998;9.116;2023-07-08T00:51:00;17.20;99.90
33328;DHT22;19692;52.998;9.116;2023-07-08T00:53:32;17.10;99.90
33328;DHT22;19692;52.998;9.116;2023-07-08T00:56:09;17.10;99.90
33328;DHT22;19692;52.998;9.116;2023-07-08T00:58:46;17.10;99.90
33328;DHT22;19692;52.998;9.116;2023-07-08T01:01:14;17.10;99.90
33328;DHT22;19692;52.998;9.116;2023-07-08T01:04:02;17.10;99.90
33328;DHT22;19692;52.998;9.116;2023-07-08T01:06:33;17.10;99.90
33328;DHT22;19692;52.998;9.116;2023-07-08T01:09:06;17.00;99.90
33328;DHT22;19692;52.998;9.116;2023-07-08T01:11:33;17.00;99.90
33328;DHT22;19692;52.998;9.116;2023-07-08T01:14:01;17.10;99.90
33328;DHT22;19692;52.998;9.116;2023-07-08T01:16:29;17.00;99.90
33328;DHT22;19692;52.998;9.116;2023-07-08T01:19:01;17.00;99.90
33328;DHT22;19692;52.998;9.116;2023-07-08T01:24:19;17.00;99.90
33328;DHT22;19692;52.998;9.116;2023-07-08T01:26:45;17.00;99.90
33328;DHT22;19692;52.998;9.116;2023-07-08T01:29:12;16.90;99.90
33328;DHT22;19692;52.998;9.116;2023-07-08T01:31:38;16.90;99.90
33328;DHT22;19692;52.998;9.116;2023-07-08T01:34:05;16.90;99.90
33328;DHT22;19692;52.998;9.116;2023-07-08T01:36:38;16.90;99.90
33328;DHT22;19692;52.998;9.116;2023-07-08T01:39:14;17.00;99.90
33328;DHT22;19692;52.998;9.116;2023-07-08T01:41:43;17.00;99.90
33328;DHT22;19692;52.998;9.116;2023-07-08T01:44:29;17.00;99.90
33328;DHT22;19692;52.998;9.116;2023-07-08T01:47:23;17.00;99.90
33328;DHT22;19692;52.998;9.116;2023-07-08T01:49:48;17.10;99.90
33328;DHT22;19692;52.998;9.116;2023-07-08T01:52:16;17.10;99.90
33328;DHT22;19692;52.998;9.116;2023-07-08T01:54:43;17.00;99.90
33328;DHT22;19692;52.998;9.116;2023-07-08T01:57:09;17.00;99.90
33328;DHT22;19692;52.998;9.116;2023-07-08T01:59:34;17.10;99.90
33328;DHT22;19692;52.998;9.116;2023-07-08T02:02:01;17.00;99.90
33328;DHT22;19692;52.998;9.116;2023-07-08T02:04:26;17.00;99.90
33328;DHT22;19692;52.998;9.116;2023-07-08T02:06:57;17.00;99.90
33328;DHT22;19692;52.998;9.116;2023-07-08T02:09:24;17.00;99.90
33328;DHT22;19692;52.998;9.116;2023-07-08T02:11:51;16.90;99.90
33328;DHT22;19692;52.998;9.116;2023-07-08T02:14:19;16.90;99.90
33328;DHT22;19692;52.998;9.116;2023-07-08T02:16:45;16.90;99.90
33328;DHT22;19692;52.998;9.116;2023-07-08T02:19:11;16.90;99.90
33328;DHT22;19692;52.998;9.116;2023-07-08T02:21:38;16.90;99.90
33328;DHT22;19692;52.998;9.116;2023-07-08T02:24:04;16.90;99.90
33328;DHT22;19692;52.998;9.116;2023-07-08T02:26:30;16.90;99.90
33328;DHT22;19692;52.998;9.116;2023-07-08T02:29:00;16.90;99.90
33328;DHT22;19692;52.998;9.116;2023-07-08T02:31:26;17.00;99.90
33328;DHT22;19692;52.998;9.116;2023-07-08T02:33:53;16.90;99.90
33328;DHT22;19692;52.998;9.116;2023-07-08T02:36:19;16.90;99.90
33328;DHT22;19692;52.998;9.116;2023-07-08T02:38:45;16.80;99.90
33328;DHT22;19692;52.998;9.116;2023-07-08T02:41:11;16.80;99.90
33328;DHT22;19692;52.998;9.116;2023-07-08T02:43:37;16.70;99.90
33328;DHT22;19692;52.998;9.116;2023-07-08T02:46:03;16.70;99.90
33328;DHT22;19692;52.998;9.116;2023-07-08T02:48:29;16.70;99.90
33328;DHT22;19692;52.998;9.116;2023-07-08T02:50:59;16.60;99.90
33328;DHT22;19692;52.998;9.116;2023-07-08T02:53:26;16.50;99.90
33328;DHT22;19692;52.998;9.116;2023-07-08T02:55:51;16.40;99.90
33328;DHT22;19692;52.998;9.116;2023-07-08T02:58:17;16.40;99.90
33328;DHT22;19692;52.998;9.116;2023-07-08T03:00:43;16.30;99.90
33328;DHT22;19692;52.998;9.116;2023-07-08T03:03:09;16.30;99.90
33328;DHT22;19692;52.998;9.116;2023-07-08T03:05:34;16.30;99.90
33328;DHT22;19692;52.998;9.116;2023-07-08T03:08:02;16.30;99.90
33328;DHT22;19692;52.998;9.116;2023-07-08T03:10:28;16.30;99.90
33328;DHT22;19692;52.998;9.116;2023-07-08T03:12:53;16.30;99.90
33328;DHT22;19692;52.998;9.116;2023-07-08T03:15:19;16.20;99.90
33328;DHT22;19692;52.998;9.116;2023-07-08T03:17:45;16.20;99.90
33328;DHT22;19692;52.998;9.116;2023-07-08T03:20:11;16.20;99.90
33328;DHT22;19692;52.998;9.116;2023-07-08T03:22:37;16.20;99.90
33328;DHT22;19692;52.998;9.116;2023-07-08T03:25:03;16.20;99.90
33328;DHT22;19692;52.998;9.116;2023-07-08T03:27:29;16.10;99.90
33328;DHT22;19692;52.998;9.116;2023-07-08T03:29:54;16.10;99.90
33328;DHT22;19692;52.998;9.116;2023-07-08T03:32:20;16.10;99.90
33328;DHT22;19692;52.998;9.116;2023-07-08T03:34:46;16.00;99.90
33328;DHT22;19692;52.998;9.116;2023-07-08T03:37:12;16.00;99.90
33328;DHT22;19692;52.998;9.116;2023-07-08T03:39:38;16.00;99.90
33328;DHT22;19692;52.998;9.116;2023-07-08T03:42:04;16.00;99.90
33328;DHT22;19692;52.998;9.116;2023-07-08T03:44:30;16.10;99.90
33328;DHT22;19692;52.998;9.116;2023-07-08T03:46:55;16.00;99.90
33328;DHT22;19692;52.998;9.116;2023-07-08T03:49:23;15.90;99.90
33328;DHT22;19692;52.998;9.116;2023-07-08T03:51:51;16.00;99.90
33328;DHT22;19692;52.998;9.116;2023-07-08T03:54:23;16.00;99.90
33328;DHT22;19692;52.998;9.116;2023-07-08T03:56:50;15.90;99.90
33328;DHT22;19692;52.998;9.116;2023-07-08T03:59:16;16.00;99.90
33328;DHT22;19692;52.998;9.116;2023-07-08T04:01:42;15.90;99.90
33328;DHT22;19692;52.998;9.116;2023-07-08T04:04:11;16.00;99.90
33328;DHT22;19692;52.998;9.116;2023-07-08T04:06:38;16.10;99.90
33328;DHT22;19692;52.998;9.116;2023-07-08T04:09:04;16.10;99.90
33328;DHT22;19692;52.998;9.116;2023-07-08T04:11:30;16.20;99.90
33328;DHT22;19692;52.998;9.116;2023-07-08T04:13:55;16.20;99.90
33328;DHT22;19692;52.998;9.116;2023-07-08T04:16:25;16.20;99.90
33328;DHT22;19692;52.998;9.116;2023-07-08T04:18:56;16.20;99.90
33328;DHT22;19692;52.998;9.116;2023-07-08T04:21:23;16.30;99.90
33328;DHT22;19692;52.998;9.116;2023-07-08T04:23:53;16.20;99.90
33328;DHT22;19692;52.998;9.116;2023-07-08T04:26:18;16.20;99.90
33328;DHT22;19692;52.998;9.116;2023-07-08T04:28:44;16.20;99.90
33328;DHT22;19692;52.998;9.116;2023-07-08T04:31:10;16.30;99.90
33328;DHT22;19692;52.998;9.116;2023-07-08T04:33:37;16.30;99.90
33328;DHT22;19692;52.998;9.116;2023-07-08T04:36:03;16.40;99.90
33328;DHT22;19692;52.998;9.116;2023-07-08T04:38:29;16.50;99.90
33328;DHT22;19692;52.998;9.116;2023-07-08T04:40:55;16.50;99.90
33328;DHT22;19692;52.998;9.116;2023-07-08T04:43:22;16.60;99.90
33328;DHT22;19692;52.998;9.116;2023-07-08T04:45:55;16.70;99.90
33328;DHT22;19692;52.998;9.116;2023-07-08T04:48:22;16.70;99.90
33328;DHT22;19692;52.998;9.116;2023-07-08T04:50:50;16.70;99.90
33328;DHT22;19692;52.998;9.116;2023-07-08T04:53:17;16.70;99.90
33328;DHT22;19692;52.998;9.116;2023-07-08T04:55:54;16.80;99.90
33328;DHT22;19692;52.998;9.116;2023-07-08T04:58:21;16.90;99.90
33328;DHT22;19692;52.998;9.116;2023-07-08T05:00:47;16.90;99.90
33328;DHT22;19692;52.998;9.116;2023-07-08T05:03:13;17.00;99.90
33328;DHT22;19692;52.998;9.116;2023-07-08T05:05:39;17.00;99.90
33328;DHT22;19692;52.998;9.116;2023-07-08T05:08:06;17.10;99.90
33328;DHT22;19692;52.998;9.116;2023-07-08T05:10:32;17.20;99.90
33328;DHT22;19692;52.998;9.116;2023-07-08T05:12:58;17.30;99.90
33328;DHT22;19692;52.998;9.116;2023-07-08T05:15:25;17.30;99.90
33328;DHT22;19692;52.998;9.116;2023-07-08T05:17:51;17.40;99.90
33328;DHT22;19692;52.998;9.116;2023-07-08T05:20:17;17.60;99.90
33328;DHT22;19692;52.998;9.116;2023-07-08T05:22:44;17.70;99.90
33328;DHT22;19692;52.998;9.116;2023-07-08T05:25:11;17.90;99.90
33328;DHT22;19692;52.998;9.116;2023-07-08T05:27:37;18.00;99.90
33328;DHT22;19692;52.998;9.116;2023-07-08T05:30:05;18.00;99.90
33328;DHT22;19692;52.998;9.116;2023-07-08T05:32:32;18.10;99.90
33328;DHT22;19692;52.998;9.116;2023-07-08T05:34:58;18.20;99.90
33328;DHT22;19692;52.998;9.116;2023-07-08T05:37:24;18.30;99.90
33328;DHT22;19692;52.998;9.116;2023-07-08T05:39:54;18.50;99.90
33328;DHT22;19692;52.998;9.116;2023-07-08T05:42:21;18.50;99.90
33328;DHT22;19692;52.998;9.116;2023-07-08T05:44:47;18.60;99.90
33328;DHT22;19692;52.998;9.116;2023-07-08T05:47:14;18.70;99.90
33328;DHT22;19692;52.998;9.116;2023-07-08T05:49:40;18.90;99.90
33328;DHT22;19692;52.998;9.116;2023-07-08T05:52:07;19.00;99.90
33328;DHT22;19692;52.998;9.116;2023-07-08T05:54:40;19.20;99.90
33328;DHT22;19692;52.998;9.116;2023-07-08T05:57:08;19.30;99.90
33328;DHT22;19692;52.998;9.116;2023-07-08T05:59:35;19.40;99.90
33328;DHT22;19692;52.998;9.116;2023-07-08T06:02:02;19.60;99.90
33328;DHT22;19692;52.998;9.116;2023-07-08T06:04:29;19.70;99.90
33328;DHT22;19692;52.998;9.116;2023-07-08T06:06:56;19.90;99.90
33328;DHT22;19692;52.998;9.116;2023-07-08T06:09:22;20.00;99.90
33328;DHT22;19692;52.998;9.116;2023-07-08T06:11:48;20.10;99.90
33328;DHT22;19692;52.998;9.116;2023-07-08T06:14:14;20.20;99.90
33328;DHT22;19692;52.998;9.116;2023-07-08T06:16:40;20.40;99.90
33328;DHT22;19692;52.998;9.116;2023-07-08T06:19:05;20.60;99.90
33328;DHT22;19692;52.998;9.116;2023-07-08T06:21:31;20.60;99.90
33328;DHT22;19692;52.998;9.116;2023-07-08T06:23:57;20.80;99.90
33328;DHT22;19692;52.998;9.116;2023-07-08T06:26:23;20.90;99.90
33328;DHT22;19692;52.998;9.116;2023-07-08T06:28:49;21.00;99.90
33328;DHT22;19692;52.998;9.116;2023-07-08T06:31:15;21.10;99.90
33328;DHT22;19692;52.998;9.116;2023-07-08T06:33:42;21.30;99.90
33328;DHT22;19692;52.998;9.116;2023-07-08T06:36:10;21.40;99.90
33328;DHT22;19692;52.998;9.116;2023-07-08T06:38:36;21.60;99.90
33328;DHT22;19692;52.998;9.116;2023-07-08T06:41:01;21.70;99.90
33328;DHT22;19692;52.998;9.116;2023-07-08T06:43:27;22.00;99.90
33328;DHT22;19692;52.998;9.116;2023-07-08T06:45:53;22.10;99.90
33328;DHT22;19692;52.998;9.116;2023-07-08T06:48:19;22.30;99.90
33328;DHT22;19692;52.998;9.116;2023-07-08T06:50:48;22.50;99.90
33328;DHT22;19692;52.998;9.116;2023-07-08T06:53:18;22.70;99.90
33328;DHT22;19692;52.998;9.116;2023-07-08T06:55:59;22.80;99.90
33328;DHT22;19692;52.998;9.116;2023-07-08T06:58:25;22.90;99.90
33328;DHT22;19692;52.998;9.116;2023-07-08T07:00:52;23.10;99.90
33328;DHT22;19692;52.998;9.116;2023-07-08T07:03:27;23.10;99.90
33328;DHT22;19692;52.998;9.116;2023-07-08T07:05:56;23.20;99.90
33328;DHT22;19692;52.998;9.116;2023-07-08T07:08:22;23.20;99.90
33328;DHT22;19692;52.998;9.116;2023-07-08T07:10:47;23.40;99.90
33328;DHT22;19692;52.998;9.116;2023-07-08T07:13:13;23.40;99.90
33328;DHT22;19692;52.998;9.116;2023-07-08T07:15:39;23.40;99.90
33328;DHT22;19692;52.998;9.116;2023-07-08T07:21:48;23.80;99.90
33328;DHT22;19692;52.998;9.116;2023-07-08T07:24:13;23.90;99.90
33328;DHT22;19692;52.998;9.116;2023-07-08T07:26:39;24.10;99.90
33328;DHT22;19692;52.998;9.116;2023-07-08T07:29:05;24.30;99.90
33328;DHT22;19692;52.998;9.116;2023-07-08T07:31:31;24.40;99.90
33328;DHT22;19692;52.998;9.116;2023-07-08T07:34:10;24.50;99.90
33328;DHT22;19692;52.998;9.116;2023-07-08T07:36:37;24.50;99.90
33328;DHT22;19692;52.998;9.116;2023-07-08T07:39:09;24.70;99.90
33328;DHT22;19692;52.998;9.116;2023-07-08T07:41:35;24.60;99.90
33328;DHT22;19692;52.998;9.116;2023-07-08T07:44:01;24.70;99.90
33328;DHT22;19692;52.998;9.116;2023-07-08T07:46:26;24.90;99.90
33328;DHT22;19692;52.998;9.116;2023-07-08T07:48:52;25.10;99.90
33328;DHT22;19692;52.998;9.116;2023-07-08T07:51:19;25.30;99.90
33328;DHT22;19692;52.998;9.116;2023-07-08T07:53:44;25.50;99.90
33328;DHT22;19692;52.998;9.116;2023-07-08T07:56:13;25.70;99.90
33328;DHT22;19692;52.998;9.116;2023-07-08T07:58:38;25.90;99.90
33328;DHT22;19692;52.998;9.116;2023-07-08T08:01:04;25.90;99.90
33328;DHT22;19692;52.998;9.116;2023-07-08T08:03:34;25.90;99.90
33328;DHT22;19692;52.998;9.116;2023-07-08T08:06:02;26.10;99.90
33328;DHT22;19692;52.998;9.116;2023-07-08T08:08:32;26.20;99.90
33328;DHT22;19692;52.998;9.116;2023-07-08T08:11:03;26.50;99.90
33328;DHT22;19692;52.998;9.116;2023-07-08T08:13:45;26.60;99.90
33328;DHT22;19692;52.998;9.116;2023-07-08T08:16:16;26.70;99.90
33328;DHT22;19692;52.998;9.116;2023-07-08T08:19:46;27.00;99.90
33328;DHT22;19692;52.998;9.116;2023-07-08T08:22:17;27.30;99.90
33328;DHT22;19692;52.998;9.116;2023-07-08T08:24:43;27.50;99.90
33328;DHT22;19692;52.998;9.116;2023-07-08T08:27:09;27.80;99.90
33328;DHT22;19692;52.998;9.116;2023-07-08T08:29:58;27.50;99.90
33328;DHT22;19692;52.998;9.116;2023-07-08T08:33:30;27.50;99.90
33328;DHT22;19692;52.998;9.116;2023-07-08T08:36:20;27.80;99.90
33328;DHT22;19692;52.998;9.116;2023-07-08T08:42:50;28.50;99.90
33328;DHT22;19692;52.998;9.116;2023-07-08T08:46:06;28.60;99.90
33328;DHT22;19692;52.998;9.116;2023-07-08T08:48:33;28.60;99.90
33328;DHT22;19692;52.998;9.116;2023-07-08T08:51:21;28.90;99.90
33328;DHT22;19692;52.998;9.116;2023-07-08T08:53:49;29.00;99.90
33328;DHT22;19692;52.998;9.116;2023-07-08T09:01:12;29.60;99.90
33328;DHT22;19692;52.998;9.116;2023-07-08T09:04:06;29.60;99.90
33328;DHT22;19692;52.998;9.116;2023-07-08T09:06:46;29.60;99.90
33328;DHT22;19692;52.998;9.116;2023-07-08T09:09:32;29.90;99.90
33328;DHT22;19692;52.998;9.116;2023-07-08T09:12:05;30.00;99.90
33328;DHT22;19692;52.998;9.116;2023-07-08T09:14:35;30.10;99.90
33328;DHT22;19692;52.998;9.116;2023-07-08T09:17:19;30.20;99.90
33328;DHT22;19692;52.998;9.116;2023-07-08T09:20:06;30.30;99.90
33328;DHT22;19692;52.998;9.116;2023-07-08T09:23:03;30.50;99.90
33328;DHT22;19692;52.998;9.116;2023-07-08T09:25:42;30.60;99.90
33328;DHT22;19692;52.998;9.116;2023-07-08T09:28:13;30.80;99.90
33328;DHT22;19692;52.998;9.116;2023-07-08T09:30:39;30.80;99.90
33328;DHT22;19692;52.998;9.116;2023-07-08T09:33:07;30.80;99.90
33328;DHT22;19692;52.998;9.116;2023-07-08T09:35:47;30.90;99.70
33328;DHT22;19692;52.998;9.116;2023-07-08T09:38:18;31.00;99.70
33328;DHT22;19692;52.998;9.116;2023-07-08T09:40:51;31.20;99.50
33328;DHT22;19692;52.998;9.116;2023-07-08T09:45:52;31.40;98.70
33328;DHT22;19692;52.998;9.116;2023-07-08T09:48:35;31.30;97.90
33328;DHT22;19692;52.998;9.116;2023-07-08T09:51:03;31.40;97.80
33328;DHT22;19692;52.998;9.116;2023-07-08T09:53:29;31.70;97.60
33328;DHT22;19692;52.998;9.116;2023-07-08T09:55:59;32.00;98.20
33328;DHT22;19692;52.998;9.116;2023-07-08T09:58:31;32.30;97.50
33328;DHT22;19692;52.998;9.116;2023-07-08T10:01:05;32.30;96.20
33328;DHT22;19692;52.998;9.116;2023-07-08T10:03:36;32.30;95.30
33328;DHT22;19692;52.998;9.116;2023-07-08T10:06:14;32.20;94.90
33328;DHT22;19692;52.998;9.116;2023-07-08T10:08:54;32.20;96.00
33328;DHT22;19692;52.998;9.116;2023-07-08T10:14:36;32.60;94.70
33328;DHT22;19692;52.998;9.116;2023-07-08T10:17:03;32.90;94.30
33328;DHT22;19692;52.998;9.116;2023-07-08T10:19:30;32.80;93.90
33328;DHT22;19692;52.998;9.116;2023-07-08T10:22:28;33.10;93.40
33328;DHT22;19692;52.998;9.116;2023-07-08T10:25:12;33.20;91.50
33328;DHT22;19692;52.998;9.116;2023-07-08T10:27:52;33.30;91.80
33328;DHT22;19692;52.998;9.116;2023-07-08T10:30:28;33.30;91.60
33328;DHT22;19692;52.998;9.116;2023-07-08T10:33:20;33.50;90.80
33328;DHT22;19692;52.998;9.116;2023-07-08T10:36:17;33.40;90.40
33328;DHT22;19692;52.998;9.116;2023-07-08T10:39:04;33.30;90.20
33328;DHT22;19692;52.998;9.116;2023-07-08T10:42:15;33.30;89.00
33328;DHT22;19692;52.998;9.116;2023-07-08T10:44:55;32.90;90.30
33328;DHT22;19692;52.998;9.116;2023-07-08T11:10:47;32.70;85.40
33328;DHT22;19692;52.998;9.116;2023-07-08T11:13:30;32.80;87.20
33328;DHT22;19692;52.998;9.116;2023-07-08T11:18:46;33.50;83.80
33328;DHT22;19692;52.998;9.116;2023-07-08T11:21:24;33.40;81.80
33328;DHT22;19692;52.998;9.116;2023-07-08T11:24:06;33.50;82.90
33328;DHT22;19692;52.998;9.116;2023-07-08T11:26:47;33.40;78.00
33328;DHT22;19692;52.998;9.116;2023-07-08T11:29:26;33.20;79.50
33328;DHT22;19692;52.998;9.116;2023-07-08T11:32:04;33.30;76.20
33328;DHT22;19692;52.998;9.116;2023-07-08T11:34:31;33.50;76.70
33328;DHT22;19692;52.998;9.116;2023-07-08T11:36:59;33.70;75.00
33328;DHT22;19692;52.998;9.116;2023-07-08T11:39:38;33.90;75.60
33328;DHT22;19692;52.998;9.116;2023-07-08T11:42:19;34.30;74.20
33328;DHT22;19692;52.998;9.116;2023-07-08T11:44:52;34.00;72.10
33328;DHT22;19692;52.998;9.116;2023-07-08T11:47:45;34.00;67.70
33328;DHT22;19692;52.998;9.116;2023-07-08T11:50:35;33.90;68.20
33328;DHT22;19692;52.998;9.116;2023-07-08T11:53:07;34.20;68.20
33328;DHT22;19692;52.998;9.116;2023-07-08T11:55:48;33.90;63.20
33328;DHT22;19692;52.998;9.116;2023-07-08T11:58:27;33.50;62.90
33328;DHT22;19692;52.998;9.116;2023-07-08T12:01:00;33.70;62.20
33328;DHT22;19692;52.998;9.116;2023-07-08T12:03:39;33.80;65.00
33328;DHT22;19692;52.998;9.116;2023-07-08T12:09:02;34.40;63.80
33328;DHT22;19692;52.998;9.116;2023-07-08T12:11:50;34.70;62.20
33328;DHT22;19692;52.998;9.116;2023-07-08T12:14:29;35.30;64.70
33328;DHT22;19692;52.998;9.116;2023-07-08T12:17:10;35.60;64.60
33328;DHT22;19692;52.998;9.116;2023-07-08T12:19:42;35.60;62.40
33328;DHT22;19692;52.998;9.116;2023-07-08T12:22:13;35.60;63.80
33328;DHT22;19692;52.998;9.116;2023-07-08T12:24:40;35.70;65.40
33328;DHT22;19692;52.998;9.116;2023-07-08T12:27:08;35.40;60.60
33328;DHT22;19692;52.998;9.116;2023-07-08T12:29:34;35.10;60.60
33328;DHT22;19692;52.998;9.116;2023-07-08T12:32:00;35.00;62.60
33328;DHT22;19692;52.998;9.116;2023-07-08T12:34:29;35.30;62.80
33328;DHT22;19692;52.998;9.116;2023-07-08T12:36:55;35.70;59.90
33328;DHT22;19692;52.998;9.116;2023-07-08T12:39:26;35.40;56.70
33328;DHT22;19692;52.998;9.116;2023-07-08T12:41:51;34.80;57.40
33328;DHT22;19692;52.998;9.116;2023-07-08T12:44:27;35.10;57.50
33328;DHT22;19692;52.998;9.116;2023-07-08T12:47:04;35.30;57.70
33328;DHT22;19692;52.998;9.116;2023-07-08T12:49:31;35.80;58.00
33328;DHT22;19692;52.998;9.116;2023-07-08T12:52:18;35.80;55.90
33328;DHT22;19692;52.998;9.116;2023-07-08T12:54:50;35.70;56.80
33328;DHT22;19692;52.998;9.116;2023-07-08T12:57:19;35.70;57.60
33328;DHT22;19692;52.998;9.116;2023-07-08T12:59:47;35.60;56.50
33328;DHT22;19692;52.998;9.116;2023-07-08T13:02:35;35.80;57.70
33328;DHT22;19692;52.998;9.116;2023-07-08T13:05:07;35.90;55.70
33328;DHT22;19692;52.998;9.116;2023-07-08T13:07:38;35.60;55.40
33328;DHT22;19692;52.998;9.116;2023-07-08T13:10:20;35.80;55.50
33328;DHT22;19692;52.998;9.116;2023-07-08T13:13:05;35.70;55.60
33328;DHT22;19692;52.998;9.116;2023-07-08T13:15:36;35.80;53.50
33328;DHT22;19692;52.998;9.116;2023-07-08T13:18:30;35.60;53.00
33328;DHT22;19692;52.998;9.116;2023-07-08T13:21:04;35.80;54.70
33328;DHT22;19692;52.998;9.116;2023-07-08T13:23:33;35.90;53.00
33328;DHT22;19692;52.998;9.116;2023-07-08T13:26:19;35.80;53.10
33328;DHT22;19692;52.998;9.116;2023-07-08T13:28:49;35.80;55.40
33328;DHT22;19692;52.998;9.116;2023-07-08T13:31:31;35.90;54.60
33328;DHT22;19692;52.998;9.116;2023-07-08T13:34:16;36.00;54.00
33328;DHT22;19692;52.998;9.116;2023-07-08T13:36:49;36.10;51.90
33328;DHT22;19692;52.998;9.116;2023-07-08T13:39:34;36.40;52.50
33328;DHT22;19692;52.998;9.116;2023-07-08T13:42:05;36.40;52.00
33328;DHT22;19692;52.998;9.116;2023-07-08T13:44:42;36.60;53.70
33328;DHT22;19692;52.998;9.116;2023-07-08T13:47:27;36.80;51.90
33328;DHT22;19692;52.998;9.116;2023-07-08T13:50:07;36.60;53.50
33328;DHT22;19692;52.998;9.116;2023-07-08T13:52:44;36.30;52.30
33328;DHT22;19692;52.998;9.116;2023-07-08T13:55:18;36.10;52.50
33328;DHT22;19692;52.998;9.116;2023-07-08T13:58:00;36.10;52.20
33328;DHT22;19692;52.998;9.116;2023-07-08T14:00:34;36.30;51.10
33328;DHT22;19692;52.998;9.116;2023-07-08T14:03:00;36.30;51.30
33328;DHT22;19692;52.998;9.116;2023-07-08T14:05:32;36.50;51.60
33328;DHT22;19692;52.998;9.116;2023-07-08T14:07:57;36.20;52.50
33328;DHT22;19692;52.998;9.116;2023-07-08T14:10:26;36.20;52.20
33328;DHT22;19692;52.998;9.116;2023-07-08T14:12:55;36.40;52.20
33328;DHT22;19692;52.998;9.116;2023-07-08T14:15:21;36.30;52.20
33328;DHT22;19692;52.998;9.116;2023-07-08T14:17:46;36.20;51.30
33328;DHT22;19692;52.998;9.116;2023-07-08T14:20:16;36.30;51.90
33328;DHT22;19692;52.998;9.116;2023-07-08T14:22:43;36.60;51.60
33328;DHT22;19692;52.998;9.116;2023-07-08T14:25:15;36.70;51.40
33328;DHT22;19692;52.998;9.116;2023-07-08T14:28:06;36.90;51.10
33328;DHT22;19692;52.998;9.116;2023-07-08T14:31:09;37.00;50.50
33328;DHT22;19692;52.998;9.116;2023-07-08T14:37:29;37.10;52.30
33328;DHT22;19692;52.998;9.116;2023-07-08T14:39:55;36.90;50.50
33328;DHT22;19692;52.998;9.116;2023-07-08T14:42:21;36.90;51.50
33328;DHT22;19692;52.998;9.116;2023-07-08T14:44:49;36.60;51.20
33328;DHT22;19692;52.998;9.116;2023-07-08T14:47:17;36.40;51.20
33328;DHT22;19692;52.998;9.116;2023-07-08T14:49:44;36.10;51.00
33328;DHT22;19692;52.998;9.116;2023-07-08T14:52:10;35.80;50.10
33328;DHT22;19692;52.998;9.116;2023-07-08T14:54:36;35.90;50.90
33328;DHT22;19692;52.998;9.116;2023-07-08T14:57:04;36.10;50.70
33328;DHT22;19692;52.998;9.116;2023-07-08T14:59:32;36.30;51.60
33328;DHT22;19692;52.998;9.116;2023-07-08T15:02:09;36.50;51.70
33328;DHT22;19692;52.998;9.116;2023-07-08T15:04:42;36.60;50.50
33328;DHT22;19692;52.998;9.116;2023-07-08T15:07:09;36.50;50.70
33328;DHT22;19692;52.998;9.116;2023-07-08T15:09:34;36.60;49.60
33328;DHT22;19692;52.998;9.116;2023-07-08T15:12:00;36.50;50.50
33328;DHT22;19692;52.998;9.116;2023-07-08T15:14:26;36.10;50.20
33328;DHT22;19692;52.998;9.116;2023-07-08T15:16:53;36.00;49.90
33328;DHT22;19692;52.998;9.116;2023-07-08T15:19:19;35.70;50.10
33328;DHT22;19692;52.998;9.116;2023-07-08T15:21:45;35.60;51.80
33328;DHT22;19692;52.998;9.116;2023-07-08T15:24:13;35.30;49.70
33328;DHT22;19692;52.998;9.116;2023-07-08T15:26:41;35.00;51.20
33328;DHT22;19692;52.998;9.116;2023-07-08T15:29:14;35.30;52.60
33328;DHT22;19692;52.998;9.116;2023-07-08T15:31:41;35.50;52.30
33328;DHT22;19692;52.998;9.116;2023-07-08T15:34:17;35.00;50.80
33328;DHT22;19692;52.998;9.116;2023-07-08T15:36:43;35.00;50.90
33328;DHT22;19692;52.998;9.116;2023-07-08T15:39:09;35.10;51.80
33328;DHT22;19692;52.998;9.116;2023-07-08T15:41:36;35.40;52.30
33328;DHT22;19692;52.998;9.116;2023-07-08T15:44:08;35.60;50.80
33328;DHT22;19692;52.998;9.116;2023-07-08T15:46:37;36.00;50.40
33328;DHT22;19692;52.998;9.116;2023-07-08T15:49:24;35.70;50.00
33328;DHT22;19692;52.998;9.116;2023-07-08T15:51:52;35.60;51.10
33328;DHT22;19692;52.998;9.116;2023-07-08T15:54:19;35.70;51.50
33328;DHT22;19692;52.998;9.116;2023-07-08T15:56:46;35.70;51.00
33328;DHT22;19692;52.998;9.116;2023-07-08T15:59:16;35.80;51.60
33328;DHT22;19692;52.998;9.116;2023-07-08T16:01:43;35.70;51.70
33328;DHT22;19692;52.998;9.116;2023-07-08T16:04:25;35.80;50.80
33328;DHT22;19692;52.998;9.116;2023-07-08T16:06:52;36.00;50.30
33328;DHT22;19692;52.998;9.116;2023-07-08T16:09:17;36.10;49.90
33328;DHT22;19692;52.998;9.116;2023-07-08T16:11:43;36.00;48.70
33328;DHT22;19692;52.998;9.116;2023-07-08T16:14:14;35.80;50.90
33328;DHT22;19692;52.998;9.116;2023-07-08T16:16:41;35.80;51.10
33328;DHT22;19692;52.998;9.116;2023-07-08T16:19:12;35.70;50.30
33328;DHT22;19692;52.998;9.116;2023-07-08T16:21:39;35.50;49.90
33328;DHT22;19692;52.998;9.116;2023-07-08T16:24:05;35.70;50.70
33328;DHT22;19692;52.998;9.116;2023-07-08T16:26:31;35.80;50.60
33328;DHT22;19692;52.998;9.116;2023-07-08T16:28:57;35.70;49.80
33328;DHT22;19692;52.998;9.116;2023-07-08T16:31:25;35.50;50.00
33328;DHT22;19692;52.998;9.116;2023-07-08T16:33:54;35.50;49.60
33328;DHT22;19692;52.998;9.116;2023-07-08T16:36:25;35.70;50.90
33328;DHT22;19692;52.998;9.116;2023-07-08T16:38:52;35.80;49.80
33328;DHT22;19692;52.998;9.116;2023-07-08T16:41:23;35.60;48.60
33328;DHT22;19692;52.998;9.116;2023-07-08T16:43:51;35.30;49.00
33328;DHT22;19692;52.998;9.116;2023-07-08T16:46:24;35.30;50.90
33328;DHT22;19692;52.998;9.116;2023-07-08T16:48:49;35.30;49.80
33328;DHT22;19692;52.998;9.116;2023-07-08T16:51:26;35.00;50.60
33328;DHT22;19692;52.998;9.116;2023-07-08T16:54:14;34.90;50.80